sensor_id;sensor_type;location;lat;lon;timestamp;P1;durP1;ratioP1;P2;durP2;ratioP2
23768;SDS011;12064;50.890;5.424;2022-11-21T00:06:29;2.57;;;2.37;;
23768;SDS011;12064;50.890;5.424;2022-11-21T00:15:35;2.85;;;2.65;;
23768;SDS011;12064;50.890;5.424;2022-11-21T00:24:28;2.58;;;2.38;;
23768;SDS011;12064;50.890;5.424;2022-11-21T00:33:21;2.85;;;2.65;;
23768;SDS011;12064;50.890;5.424;2022-11-21T00:42:12;2.80;;;2.60;;
23768;SDS011;12064;50.890;5.424;2022-11-21T00:51:04;2.53;;;2.35;;
23768;SDS011;12064;50.890;5.424;2022-11-21T00:59:57;2.65;;;2.42;;
23768;SDS011;12064;50.890;5.424;2022-11-21T01:08:50;2.70;;;2.50;;
23768;SDS011;12064;50.890;5.424;2022-11-21T01:17:44;2.75;;;2.55;;
23768;SDS011;12064;50.890;5.424;2022-11-21T01:26:35;2.30;;;2.13;;
23768;SDS011;12064;50.890;5.424;2022-11-21T01:35:27;2.60;;;2.40;;
23768;SDS011;12064;50.890;5.424;2022-11-21T01:44:18;2.40;;;2.20;;
23768;SDS011;12064;50.890;5.424;2022-11-21T01:53:09;2.58;;;2.38;;
23768;SDS011;12064;50.890;5.424;2022-11-21T02:02:01;2.20;;;2.00;;
23768;SDS011;12064;50.890;5.424;2022-11-21T02:11:20;2.10;;;2.00;;
23768;SDS011;12064;50.890;5.424;2022-11-21T02:20:49;2.63;;;2.40;;
23768;SDS011;12064;50.890;5.424;2022-11-21T02:29:48;2.50;;;2.30;;
23768;SDS011;12064;50.890;5.424;2022-11-21T02:38:39;2.30;;;2.10;;
23768;SDS011;12064;50.890;5.424;2022-11-21T02:47:29;2.50;;;2.30;;
23768;SDS011;12064;50.890;5.424;2022-11-21T03:05:55;2.30;;;2.20;;
23768;SDS011;12064;50.890;5.424;2022-11-21T03:14:49;2.30;;;2.10;;
23768;SDS011;12064;50.890;5.424;2022-11-21T03:23:39;2.10;;;1.90;;
23768;SDS011;12064;50.890;5.424;2022-11-21T03:32:32;2.05;;;1.95;;
23768;SDS011;12064;50.890;5.424;2022-11-21T03:41:23;1.93;;;1.83;;
23768;SDS011;12064;50.890;5.424;2022-11-21T04:08:27;2.05;;;1.92;;
23768;SDS011;12064;50.890;5.424;2022-11-21T04:17:17;1.90;;;1.80;;
23768;SDS011;12064;50.890;5.424;2022-11-21T04:26:08;2.00;;;1.90;;
23768;SDS011;12064;50.890;5.424;2022-11-21T04:35:01;2.10;;;2.00;;
23768;SDS011;12064;50.890;5.424;2022-11-21T04:43:52;2.00;;;1.90;;
23768;SDS011;12064;50.890;5.424;2022-11-21T05:11:13;1.98;;;1.88;;
23768;SDS011;12064;50.890;5.424;2022-11-21T05:20:23;2.03;;;1.90;;
23768;SDS011;12064;50.890;5.424;2022-11-21T05:29:14;1.80;;;1.70;;
23768;SDS011;12064;50.890;5.424;2022-11-21T05:38:05;1.80;;;1.70;;
23768;SDS011;12064;50.890;5.424;2022-11-21T05:46:55;1.87;;;1.77;;
23768;SDS011;12064;50.890;5.424;2022-11-21T05:55:49;1.80;;;1.70;;
23768;SDS011;12064;50.890;5.424;2022-11-21T06:04:43;1.70;;;1.60;;
23768;SDS011;12064;50.890;5.424;2022-11-21T06:13:33;1.60;;;1.50;;
23768;SDS011;12064;50.890;5.424;2022-11-21T06:22:25;1.70;;;1.60;;
23768;SDS011;12064;50.890;5.424;2022-11-21T06:40:16;1.90;;;1.80;;
23768;SDS011;12064;50.890;5.424;2022-11-21T06:49:10;1.90;;;1.70;;
23768;SDS011;12064;50.890;5.424;2022-11-21T06:58:00;1.60;;;1.50;;
23768;SDS011;12064;50.890;5.424;2022-11-21T07:06:55;1.88;;;1.75;;
23768;SDS011;12064;50.890;5.424;2022-11-21T07:15:46;1.60;;;1.50;;
23768;SDS011;12064;50.890;5.424;2022-11-21T07:24:41;2.00;;;1.60;;
23768;SDS011;12064;50.890;5.424;2022-11-21T07:33:35;2.00;;;1.50;;
23768;SDS011;12064;50.890;5.424;2022-11-21T07:42:28;1.83;;;1.73;;
23768;SDS011;12064;50.890;5.424;2022-11-21T07:51:25;2.80;;;1.80;;
23768;SDS011;12064;50.890;5.424;2022-11-21T08:00:16;1.70;;;1.60;;
23768;SDS011;12064;50.890;5.424;2022-11-21T08:09:09;1.55;;;1.45;;
23768;SDS011;12064;50.890;5.424;2022-11-21T08:18:13;1.73;;;1.43;;
23768;SDS011;12064;50.890;5.424;2022-11-21T08:27:21;1.80;;;1.70;;
23768;SDS011;12064;50.890;5.424;2022-11-21T08:36:15;1.95;;;1.48;;
23768;SDS011;12064;50.890;5.424;2022-11-21T08:45:06;1.40;;;1.30;;
23768;SDS011;12064;50.890;5.424;2022-11-21T08:53:57;1.60;;;1.50;;
23768;SDS011;12064;50.890;5.424;2022-11-21T09:02:48;1.60;;;1.50;;
23768;SDS011;12064;50.890;5.424;2022-11-21T09:11:39;1.83;;;1.63;;
23768;SDS011;12064;50.890;5.424;2022-11-21T09:20:35;1.88;;;1.65;;
23768;SDS011;12064;50.890;5.424;2022-11-21T09:29:29;1.73;;;1.60;;
23768;SDS011;12064;50.890;5.424;2022-11-21T09:38:20;1.60;;;1.50;;
23768;SDS011;12064;50.890;5.424;2022-11-21T09:56:13;1.70;;;1.60;;
23768;SDS011;12064;50.890;5.424;2022-11-21T10:05:12;2.80;;;1.60;;
23768;SDS011;12064;50.890;5.424;2022-11-21T10:32:36;1.85;;;1.50;;
23768;SDS011;12064;50.890;5.424;2022-11-21T10:41:39;2.15;;;1.60;;
23768;SDS011;12064;50.890;5.424;2022-11-21T10:50:37;1.98;;;1.48;;
23768;SDS011;12064;50.890;5.424;2022-11-21T11:09:00;1.85;;;1.58;;
23768;SDS011;12064;50.890;5.424;2022-11-21T11:18:02;2.13;;;1.63;;
23768;SDS011;12064;50.890;5.424;2022-11-21T11:26:59;2.10;;;1.67;;
23768;SDS011;12064;50.890;5.424;2022-11-21T11:36:18;2.10;;;1.60;;
23768;SDS011;12064;50.890;5.424;2022-11-21T11:45:29;2.60;;;1.80;;
23768;SDS011;12064;50.890;5.424;2022-11-21T11:55:01;2.17;;;1.40;;
23768;SDS011;12064;50.890;5.424;2022-11-21T12:03:57;1.60;;;1.50;;
23768;SDS011;12064;50.890;5.424;2022-11-21T12:22:38;1.95;;;1.40;;
23768;SDS011;12064;50.890;5.424;2022-11-21T12:50:21;1.52;;;1.40;;
23768;SDS011;12064;50.890;5.424;2022-11-21T13:08:57;1.90;;;1.52;;
23768;SDS011;12064;50.890;5.424;2022-11-21T13:17:58;2.00;;;1.50;;
23768;SDS011;12064;50.890;5.424;2022-11-21T14:22:59;2.45;;;1.50;;
23768;SDS011;12064;50.890;5.424;2022-11-21T14:31:50;1.83;;;1.45;;
23768;SDS011;12064;50.890;5.424;2022-11-21T14:59:30;1.85;;;1.55;;
23768;SDS011;12064;50.890;5.424;2022-11-21T15:17:21;3.05;;;1.73;;
23768;SDS011;12064;50.890;5.424;2022-11-21T15:26:32;1.30;;;1.20;;
23768;SDS011;12064;50.890;5.424;2022-11-21T15:35:28;1.95;;;1.52;;
23768;SDS011;12064;50.890;5.424;2022-11-21T15:44:28;2.17;;;1.60;;
23768;SDS011;12064;50.890;5.424;2022-11-21T15:53:19;1.73;;;1.30;;
23768;SDS011;12064;50.890;5.424;2022-11-21T16:02:14;1.58;;;1.27;;
23768;SDS011;12064;50.890;5.424;2022-11-21T16:20:29;3.17;;;1.55;;
23768;SDS011;12064;50.890;5.424;2022-11-21T16:29:21;3.17;;;1.40;;
23768;SDS011;12064;50.890;5.424;2022-11-21T16:47:24;2.30;;;1.40;;
23768;SDS011;12064;50.890;5.424;2022-11-21T16:56:17;1.90;;;1.17;;
23768;SDS011;12064;50.890;5.424;2022-11-21T17:05:10;1.85;;;1.25;;
23768;SDS011;12064;50.890;5.424;2022-11-21T17:32:58;1.52;;;1.10;;
23768;SDS011;12064;50.890;5.424;2022-11-21T17:41:48;1.45;;;1.10;;
23768;SDS011;12064;50.890;5.424;2022-11-21T18:00:13;2.75;;;1.40;;
23768;SDS011;12064;50.890;5.424;2022-11-21T18:09:11;2.10;;;1.40;;
23768;SDS011;12064;50.890;5.424;2022-11-21T18:18:02;1.98;;;1.27;;
23768;SDS011;12064;50.890;5.424;2022-11-21T18:26:56;1.73;;;1.20;;
23768;SDS011;12064;50.890;5.424;2022-11-21T18:35:46;1.60;;;1.20;;
23768;SDS011;12064;50.890;5.424;2022-11-21T18:44:39;1.38;;;1.10;;
23768;SDS011;12064;50.890;5.424;2022-11-21T18:53:30;2.33;;;1.40;;
23768;SDS011;12064;50.890;5.424;2022-11-21T19:02:26;1.48;;;1.25;;
23768;SDS011;12064;50.890;5.424;2022-11-21T19:11:29;1.60;;;1.20;;
23768;SDS011;12064;50.890;5.424;2022-11-21T19:29:49;1.45;;;1.23;;
23768;SDS011;12064;50.890;5.424;2022-11-21T19:38:44;3.80;;;1.55;;
23768;SDS011;12064;50.890;5.424;2022-11-21T19:47:35;1.75;;;1.23;;
23768;SDS011;12064;50.890;5.424;2022-11-21T19:56:26;1.80;;;1.30;;
23768;SDS011;12064;50.890;5.424;2022-11-21T20:05:20;1.63;;;1.10;;
23768;SDS011;12064;50.890;5.424;2022-11-21T20:14:15;2.93;;;1.13;;
23768;SDS011;12064;50.890;5.424;2022-11-21T20:31:59;1.73;;;1.40;;
23768;SDS011;12064;50.890;5.424;2022-11-21T20:40:51;1.45;;;1.27;;
23768;SDS011;12064;50.890;5.424;2022-11-21T20:49:41;2.10;;;1.27;;
23768;SDS011;12064;50.890;5.424;2022-11-21T20:58:33;2.03;;;1.27;;
23768;SDS011;12064;50.890;5.424;2022-11-21T21:07:28;1.27;;;1.10;;
23768;SDS011;12064;50.890;5.424;2022-11-21T21:16:19;1.93;;;1.40;;
23768;SDS011;12064;50.890;5.424;2022-11-21T21:34:24;1.20;;;1.02;;
23768;SDS011;12064;50.890;5.424;2022-11-21T21:43:15;1.80;;;1.40;;
23768;SDS011;12064;50.890;5.424;2022-11-21T21:52:06;1.70;;;1.20;;
23768;SDS011;12064;50.890;5.424;2022-11-21T22:01:00;1.30;;;1.10;;
23768;SDS011;12064;50.890;5.424;2022-11-21T22:18:45;1.57;;;1.30;;
23768;SDS011;12064;50.890;5.424;2022-11-21T22:27:36;1.57;;;1.30;;
23768;SDS011;12064;50.890;5.424;2022-11-21T22:36:27;1.42;;;1.10;;
23768;SDS011;12064;50.890;5.424;2022-11-21T22:45:18;1.52;;;1.08;;
23768;SDS011;12064;50.890;5.424;2022-11-21T22:54:11;1.45;;;1.20;;
23768;SDS011;12064;50.890;5.424;2022-11-21T23:03:02;1.20;;;1.10;;
23768;SDS011;12064;50.890;5.424;2022-11-21T23:11:55;1.15;;;1.05;;
23768;SDS011;12064;50.890;5.424;2022-11-21T23:29:59;1.08;;;0.95;;
23768;SDS011;12064;50.890;5.424;2022-11-21T23:38:49;1.35;;;1.10;;
23768;SDS011;12064;50.890;5.424;2022-11-21T23:47:40;1.20;;;1.10;;
